createdAt,value
2023-01-12T00:01:59.549Z,9.90
2023-01-12T00:04:26.546Z,9.90
2023-01-12T00:06:53.751Z,9.90
2023-01-12T00:09:20.542Z,9.90
2023-01-12T00:11:47.438Z,9.80
2023-01-12T00:14:14.439Z,9.80
2023-01-12T00:16:41.499Z,9.80
2023-01-12T00:19:19.859Z,9.80
2023-01-12T00:21:56.347Z,9.80
2023-01-12T00:24:38.100Z,9.80
2023-01-12T00:27:14.675Z,9.80
2023-01-12T00:29:41.710Z,9.80
2023-01-12T00:32:12.441Z,9.80
2023-01-12T00:34:39.196Z,9.80
2023-01-12T00:37:06.242Z,9.80
2023-01-12T00:39:40.406Z,9.80
2023-01-12T00:42:28.368Z,9.80
2023-01-12T00:45:14.023Z,9.80
2023-01-12T00:47:42.956Z,9.90
2023-01-12T00:50:09.783Z,10.00
2023-01-12T00:52:36.528Z,9.80
2023-01-12T00:55:03.723Z,9.80
2023-01-12T00:57:30.497Z,9.80
2023-01-12T00:59:59.109Z,9.80
2023-01-12T01:02:27.430Z,9.80
2023-01-12T01:04:54.293Z,9.70
2023-01-12T01:07:24.014Z,9.70
2023-01-12T01:09:51.271Z,9.70
2023-01-12T01:12:18.123Z,9.70
2023-01-12T01:14:45.078Z,9.70
2023-01-12T01:17:11.797Z,9.60
2023-01-12T01:19:38.608Z,9.60
2023-01-12T01:22:05.632Z,9.60
2023-01-12T01:24:32.431Z,9.60
2023-01-12T01:26:59.423Z,9.60
2023-01-12T01:29:26.333Z,9.60
2023-01-12T01:31:55.157Z,9.70
2023-01-12T01:34:23.634Z,9.60
2023-01-12T01:36:50.575Z,9.70
2023-01-12T01:39:17.333Z,9.70
2023-01-12T01:41:44.139Z,9.60
2023-01-12T01:44:29.300Z,9.60
2023-01-12T01:47:04.006Z,9.60
2023-01-12T01:49:43.466Z,9.70
2023-01-12T01:52:16.279Z,9.70
2023-01-12T01:54:48.223Z,9.70
2023-01-12T01:57:15.895Z,10.00
2023-01-12T01:59:50.548Z,9.80
2023-01-12T02:02:18.345Z,9.80
2023-01-12T02:04:45.918Z,9.80
2023-01-12T02:07:12.839Z,9.90
2023-01-12T02:09:40.137Z,9.90
2023-01-12T02:12:27.098Z,9.90
2023-01-12T02:15:13.778Z,9.90
2023-01-12T02:17:59.327Z,9.90
2023-01-12T02:20:46.441Z,9.90
2023-01-12T02:23:22.605Z,9.80
2023-01-12T02:26:08.370Z,9.80
2023-01-12T02:28:50.275Z,9.90
2023-01-12T02:31:23.586Z,9.80
2023-01-12T02:34:03.167Z,9.90
2023-01-12T02:36:58.909Z,9.80
2023-01-12T02:39:49.870Z,9.80
2023-01-12T02:42:42.286Z,9.70
2023-01-12T02:45:23.086Z,9.70
2023-01-12T02:47:57.610Z,9.70
2023-01-12T02:50:28.661Z,9.70
2023-01-12T02:53:02.961Z,9.70
2023-01-12T02:55:31.919Z,10.00
2023-01-12T02:57:59.920Z,9.70
2023-01-12T03:00:27.428Z,9.70
2023-01-12T03:02:54.319Z,9.70
2023-01-12T03:05:26.859Z,9.70
2023-01-12T03:08:00.166Z,9.70
2023-01-12T03:10:53.552Z,9.70
2023-01-12T03:13:22.951Z,9.80
2023-01-12T03:15:53.065Z,9.90
2023-01-12T03:18:38.909Z,9.80
2023-01-12T03:21:33.971Z,9.80
2023-01-12T03:24:04.218Z,9.80
2023-01-12T03:26:34.501Z,9.70
2023-01-12T03:29:11.455Z,9.80
2023-01-12T03:31:38.515Z,9.70
2023-01-12T03:34:05.444Z,9.70
2023-01-12T03:36:44.998Z,9.80
2023-01-12T03:39:12.594Z,9.60
2023-01-12T03:41:57.826Z,9.70
2023-01-12T03:44:38.443Z,9.70
2023-01-12T03:47:13.151Z,9.70
2023-01-12T03:49:55.095Z,9.60
2023-01-12T03:52:23.863Z,9.70
2023-01-12T03:54:53.350Z,9.50
2023-01-12T03:57:21.690Z,9.60
2023-01-12T03:59:49.277Z,9.60
2023-01-12T04:02:16.150Z,9.70
2023-01-12T04:04:43.005Z,9.70
2023-01-12T04:07:09.950Z,9.70
2023-01-12T04:09:37.500Z,9.70
2023-01-12T04:12:10.959Z,9.70
2023-01-12T04:14:38.597Z,9.70
2023-01-12T04:17:05.923Z,9.70
2023-01-12T04:19:32.904Z,9.70
2023-01-12T04:22:18.991Z,9.70
2023-01-12T04:24:45.939Z,9.70
2023-01-12T04:27:12.940Z,9.60
2023-01-12T04:29:39.790Z,9.70
2023-01-12T04:32:07.023Z,9.60
2023-01-12T04:34:35.507Z,9.60
2023-01-12T04:37:03.309Z,9.70
2023-01-12T04:39:30.473Z,9.60
2023-01-12T04:41:57.324Z,9.60
2023-01-12T04:44:24.076Z,9.60
2023-01-12T04:46:51.427Z,9.70
2023-01-12T04:49:18.200Z,9.60
2023-01-12T04:51:45.256Z,9.70
2023-01-12T04:54:12.210Z,9.70
2023-01-12T04:56:39.036Z,9.60
2023-01-12T04:59:07.342Z,9.70
2023-01-12T05:01:36.636Z,9.70
2023-01-12T05:04:05.177Z,9.70
2023-01-12T05:06:32.997Z,9.70
2023-01-12T05:09:35.405Z,9.60
2023-01-12T05:12:02.259Z,9.70
2023-01-12T05:14:29.294Z,9.70
2023-01-12T05:16:56.418Z,9.90
2023-01-12T05:19:23.272Z,9.70
2023-01-12T05:21:50.140Z,9.70
2023-01-12T05:24:17.164Z,9.80
2023-01-12T05:26:44.088Z,9.80
2023-01-12T05:29:13.973Z,9.90
2023-01-12T05:31:40.933Z,9.70
2023-01-12T05:34:08.095Z,9.70
2023-01-12T05:36:34.945Z,9.80
2023-01-12T05:39:04.099Z,9.80
2023-01-12T05:41:31.231Z,9.80
2023-01-12T05:43:57.968Z,9.80
2023-01-12T05:46:27.247Z,9.80
2023-01-12T05:48:56.683Z,9.80
2023-01-12T05:51:26.031Z,9.90
2023-01-12T05:53:59.293Z,10.00
2023-01-12T05:56:33.963Z,9.90
2023-01-12T05:59:02.212Z,9.70
2023-01-12T06:01:30.205Z,9.90
2023-01-12T06:03:59.697Z,9.90
2023-01-12T06:06:30.527Z,9.90
2023-01-12T06:08:58.403Z,9.90
2023-01-12T06:11:44.064Z,9.90
2023-01-12T06:14:11.345Z,9.90
2023-01-12T06:16:40.396Z,9.90
2023-01-12T06:19:08.171Z,9.90
2023-01-12T06:21:35.092Z,9.90
2023-01-12T06:24:02.146Z,9.90
2023-01-12T06:26:28.976Z,9.90
2023-01-12T06:28:55.908Z,9.90
2023-01-12T06:31:22.624Z,9.90
2023-01-12T06:33:49.333Z,10.20
2023-01-12T06:36:16.128Z,10.00
2023-01-12T06:38:43.298Z,9.90
2023-01-12T06:41:30.507Z,10.00
2023-01-12T06:43:57.589Z,10.00
2023-01-12T06:46:28.393Z,10.00
2023-01-12T06:48:57.166Z,10.00
2023-01-12T06:51:24.810Z,10.00
2023-01-12T06:53:51.689Z,10.00
2023-01-12T06:56:18.587Z,10.00
2023-01-12T06:58:45.396Z,10.00
2023-01-12T07:01:13.482Z,10.10
2023-01-12T07:03:40.523Z,10.00
2023-01-12T07:06:07.826Z,10.10
2023-01-12T07:08:34.787Z,10.00
2023-01-12T07:11:03.739Z,10.00
2023-01-12T07:13:31.326Z,10.00
2023-01-12T07:15:59.979Z,10.00
2023-01-12T07:18:28.477Z,10.10
2023-01-12T07:20:55.216Z,10.10
2023-01-12T07:23:22.019Z,10.10
2023-01-12T07:25:48.800Z,10.10
2023-01-12T07:28:15.694Z,10.10
2023-01-12T07:30:46.517Z,10.10
2023-01-12T07:33:16.652Z,10.10
2023-01-12T07:35:45.550Z,10.20
2023-01-12T07:38:12.418Z,10.20
2023-01-12T07:40:39.198Z,10.20
2023-01-12T07:43:08.601Z,10.20
2023-01-12T07:45:36.423Z,10.20
2023-01-12T07:48:03.511Z,10.20
2023-01-12T07:50:30.254Z,10.30
2023-01-12T07:53:01.373Z,10.40
2023-01-12T07:55:28.890Z,10.20
2023-01-12T07:58:01.017Z,10.30
2023-01-12T08:00:28.277Z,10.30
2023-01-12T08:02:56.258Z,10.30
2023-01-12T08:05:23.279Z,10.30
2023-01-12T08:07:49.961Z,10.30
2023-01-12T08:10:17.181Z,10.30
2023-01-12T08:12:44.679Z,10.30
2023-01-12T08:15:13.334Z,10.40
2023-01-12T08:17:52.224Z,10.30
2023-01-12T08:20:24.325Z,10.30
2023-01-12T08:23:10.043Z,10.40
2023-01-12T08:25:44.321Z,10.50
2023-01-12T08:28:17.196Z,10.40
2023-01-12T08:30:48.944Z,10.30
2023-01-12T08:33:16.113Z,10.30
2023-01-12T08:35:44.102Z,10.40
2023-01-12T08:38:10.890Z,10.40
2023-01-12T08:40:56.460Z,10.40
2023-01-12T08:43:42.060Z,10.40
2023-01-12T08:46:08.919Z,10.50
2023-01-12T08:48:36.868Z,10.50
2023-01-12T08:51:08.006Z,10.50
2023-01-12T08:53:35.513Z,10.40
2023-01-12T08:56:02.562Z,10.50
2023-01-12T08:58:29.539Z,10.50
2023-01-12T09:00:56.484Z,10.60
2023-01-12T09:03:23.418Z,10.60
2023-01-12T09:05:50.204Z,10.60
2023-01-12T09:08:16.840Z,10.60
2023-01-12T09:10:43.565Z,10.60
2023-01-12T09:13:15.500Z,10.60
2023-01-12T09:15:48.215Z,10.60
2023-01-12T09:18:20.229Z,10.80
2023-01-12T09:20:47.139Z,10.70
2023-01-12T09:23:13.958Z,10.70
2023-01-12T09:25:41.690Z,10.70
2023-01-12T09:28:08.461Z,10.80
2023-01-12T09:30:35.818Z,10.80
2023-01-12T09:33:02.647Z,10.80
2023-01-12T09:35:30.249Z,10.80
2023-01-12T09:37:57.008Z,10.80
2023-01-12T09:40:24.168Z,10.90
2023-01-12T09:43:10.794Z,10.90
2023-01-12T09:45:56.645Z,10.90
2023-01-12T09:48:25.170Z,10.80
2023-01-12T09:51:03.816Z,11.00
2023-01-12T09:53:41.849Z,10.90
2023-01-12T09:56:14.038Z,10.90
2023-01-12T09:59:03.976Z,10.90
2023-01-12T10:01:31.083Z,10.90
2023-01-12T10:04:01.121Z,11.00
2023-01-12T10:06:28.771Z,10.90
2023-01-12T10:09:00.784Z,11.00
2023-01-12T10:12:00.752Z,10.70
2023-01-12T10:14:33.412Z,10.90
2023-01-12T10:17:25.449Z,10.90
2023-01-12T10:20:28.136Z,11.00
2023-01-12T10:23:15.433Z,11.00
2023-01-12T10:26:18.707Z,11.00
2023-01-12T10:28:46.888Z,11.00
2023-01-12T10:31:20.926Z,11.00
2023-01-12T10:34:13.335Z,11.00
2023-01-12T10:36:47.054Z,11.20
2023-01-12T10:39:28.818Z,11.00
2023-01-12T10:42:37.248Z,11.10
2023-01-12T10:45:11.804Z,11.10
2023-01-12T10:47:38.654Z,11.10
2023-01-12T10:50:24.441Z,11.10
2023-01-12T10:52:58.549Z,11.10
2023-01-12T10:55:33.725Z,11.00
2023-01-12T10:58:01.555Z,11.00
2023-01-12T11:00:29.676Z,11.00
2023-01-12T11:02:56.894Z,11.10
2023-01-12T11:05:37.406Z,11.00
2023-01-12T11:08:25.937Z,11.10
2023-01-12T11:10:52.697Z,11.10
2023-01-12T11:13:36.356Z,11.10
2023-01-12T11:16:21.486Z,11.10
2023-01-12T11:19:18.111Z,11.10
2023-01-12T11:22:07.207Z,11.10
2023-01-12T11:24:49.502Z,11.10
2023-01-12T11:27:37.174Z,11.10
2023-01-12T11:30:08.128Z,11.10
2023-01-12T11:32:56.631Z,11.10
2023-01-12T11:35:51.452Z,11.00
2023-01-12T11:38:24.776Z,11.00
2023-01-12T11:40:55.232Z,11.00
2023-01-12T11:43:49.951Z,11.00
2023-01-12T11:46:43.863Z,11.00
2023-01-12T11:49:16.737Z,11.00
2023-01-12T11:51:44.332Z,11.00
2023-01-12T11:54:15.672Z,11.00
2023-01-12T11:57:14.698Z,11.00
2023-01-12T12:00:12.300Z,11.00
2023-01-12T12:02:45.500Z,11.00
2023-01-12T12:05:18.143Z,11.00
2023-01-12T12:07:49.120Z,11.00
2023-01-12T12:10:25.249Z,11.00
2023-01-12T12:13:22.244Z,11.00
2023-01-12T12:16:19.630Z,11.00
2023-01-12T12:19:17.202Z,11.00
2023-01-12T12:22:03.166Z,11.00
2023-01-12T12:24:51.773Z,11.00
2023-01-12T12:27:36.581Z,11.00
2023-01-12T12:30:28.074Z,11.10
2023-01-12T12:33:22.064Z,11.10
2023-01-12T12:35:48.764Z,11.10
2023-01-12T12:38:48.550Z,11.10
2023-01-12T12:41:46.176Z,11.10
2023-01-12T12:44:53.318Z,11.10
2023-01-12T12:47:31.857Z,11.10
2023-01-12T12:50:00.410Z,11.10
2023-01-12T12:52:34.910Z,11.10
2023-01-12T12:55:03.179Z,11.00
2023-01-12T12:57:29.866Z,11.10
2023-01-12T12:59:59.808Z,11.10
2023-01-12T13:02:54.145Z,11.10
2023-01-12T13:05:48.419Z,11.10
2023-01-12T13:08:20.482Z,11.10
2023-01-12T13:10:56.104Z,11.10
2023-01-12T13:13:35.554Z,11.10
2023-01-12T13:16:20.523Z,11.00
2023-01-12T13:18:48.534Z,11.10
2023-01-12T13:21:56.284Z,11.10
2023-01-12T13:24:40.598Z,11.10
2023-01-12T13:27:46.887Z,11.10
2023-01-12T13:30:19.757Z,11.20
2023-01-12T13:33:15.956Z,11.10
2023-01-12T13:35:46.350Z,11.10
2023-01-12T13:38:46.044Z,11.20
2023-01-12T13:41:53.211Z,11.10
2023-01-12T13:44:30.186Z,11.10
2023-01-12T13:47:17.655Z,11.10
2023-01-12T13:49:50.949Z,11.10
2023-01-12T13:52:39.419Z,11.10
2023-01-12T13:55:21.522Z,11.10
2023-01-12T13:58:01.783Z,11.10
2023-01-12T14:00:31.263Z,11.10
2023-01-12T14:02:59.547Z,11.10
2023-01-12T14:05:42.663Z,11.20
2023-01-12T14:08:57.505Z,11.20
2023-01-12T14:11:24.197Z,11.20
2023-01-12T14:14:35.279Z,11.20
2023-01-12T14:17:36.128Z,11.20
2023-01-12T14:20:03.184Z,11.20
2023-01-12T14:22:30.260Z,11.20
2023-01-12T14:25:17.865Z,11.40
2023-01-12T14:27:58.215Z,11.20
2023-01-12T14:30:27.155Z,11.20
2023-01-12T14:32:55.285Z,11.20
2023-01-12T14:35:25.933Z,11.40
2023-01-12T14:37:59.455Z,11.20
2023-01-12T14:40:30.559Z,11.20
2023-01-12T14:43:16.922Z,11.20
2023-01-12T14:46:26.998Z,11.20
2023-01-12T14:48:58.823Z,11.20
2023-01-12T14:51:35.578Z,11.20
2023-01-12T14:54:22.655Z,11.20
2023-01-12T14:56:59.023Z,11.20
2023-01-12T14:59:32.067Z,11.30
2023-01-12T15:02:13.877Z,11.20
2023-01-12T15:04:58.200Z,11.20
2023-01-12T15:07:30.270Z,11.20
2023-01-12T15:10:10.885Z,11.20
2023-01-12T15:12:47.828Z,11.10
2023-01-12T15:15:26.165Z,11.20
2023-01-12T15:18:13.934Z,11.20
2023-01-12T15:21:02.862Z,11.20
2023-01-12T15:23:51.100Z,11.20
2023-01-12T15:26:18.610Z,11.20
2023-01-12T15:28:47.196Z,11.20
2023-01-12T15:31:34.399Z,11.20
2023-01-12T15:34:02.118Z,11.20
2023-01-12T15:36:28.938Z,11.20
2023-01-12T15:38:55.954Z,11.40
2023-01-12T15:41:44.881Z,11.20
2023-01-12T15:44:16.051Z,11.20
2023-01-12T15:46:43.220Z,11.20
2023-01-12T15:49:13.164Z,11.20
2023-01-12T15:51:41.212Z,11.20
2023-01-12T15:54:09.753Z,11.20
2023-01-12T15:56:36.555Z,11.20
2023-01-12T15:59:04.129Z,11.20
2023-01-12T16:01:38.644Z,11.20
2023-01-12T16:04:40.476Z,11.40
2023-01-12T16:06:52.838Z,11.20
2023-01-12T16:09:19.641Z,11.20
2023-01-12T16:11:46.641Z,11.20
2023-01-12T16:14:14.432Z,11.20
2023-01-12T16:16:42.511Z,11.20
2023-01-12T16:19:09.900Z,11.30
2023-01-12T16:21:37.051Z,11.30
2023-01-12T16:24:03.974Z,11.30
2023-01-12T16:26:30.809Z,11.30
2023-01-12T16:28:58.261Z,11.20
2023-01-12T16:31:25.475Z,11.30
2023-01-12T16:33:52.309Z,11.20
2023-01-12T16:36:19.046Z,11.20
2023-01-12T16:38:45.893Z,11.20
2023-01-12T16:41:15.556Z,11.30
2023-01-12T16:43:42.323Z,11.20
2023-01-12T16:46:11.745Z,11.30
2023-01-12T16:48:39.333Z,11.30
2023-01-12T16:51:14.140Z,11.30
2023-01-12T16:53:42.564Z,11.30
2023-01-12T16:56:16.192Z,11.30
2023-01-12T16:58:47.702Z,11.30
2023-01-12T17:01:23.391Z,11.30
2023-01-12T17:03:51.112Z,11.30
2023-01-12T17:06:21.229Z,11.20
2023-01-12T17:08:48.729Z,11.30
2023-01-12T17:11:20.769Z,11.30
2023-01-12T17:13:57.878Z,11.30
2023-01-12T17:16:28.199Z,11.20
2023-01-12T17:18:55.140Z,11.20
2023-01-12T17:21:22.324Z,11.20
2023-01-12T17:23:49.786Z,11.30
2023-01-12T17:26:18.916Z,11.40
2023-01-12T17:28:46.543Z,11.30
2023-01-12T17:31:16.566Z,11.30
2023-01-12T17:33:43.750Z,11.30
2023-01-12T17:36:12.659Z,11.30
2023-01-12T17:38:40.217Z,11.30
2023-01-12T17:41:30.903Z,11.30
2023-01-12T17:43:58.151Z,11.30
2023-01-12T17:46:24.995Z,11.40
2023-01-12T17:48:51.847Z,11.30
2023-01-12T17:51:18.635Z,11.30
2023-01-12T17:53:45.380Z,11.40
2023-01-12T17:56:13.629Z,11.40
2023-01-12T17:58:40.957Z,11.30
2023-01-12T18:01:12.258Z,11.40
2023-01-12T18:03:39.565Z,11.40
2023-01-12T18:06:12.034Z,11.40
2023-01-12T18:08:49.071Z,11.50
2023-01-12T18:11:16.601Z,11.50
2023-01-12T18:13:43.888Z,11.50
2023-01-12T18:16:13.085Z,11.50
2023-01-12T18:18:41.968Z,11.50
2023-01-12T18:21:11.444Z,11.50
2023-01-12T18:23:38.753Z,11.50
2023-01-12T18:26:07.434Z,11.50
2023-01-12T18:28:34.244Z,11.50
2023-01-12T18:31:12.335Z,11.50
2023-01-12T18:33:39.931Z,11.50
2023-01-12T18:36:08.578Z,11.50
2023-01-12T18:38:36.038Z,11.50
2023-01-12T18:41:21.791Z,11.50
2023-01-12T18:43:50.663Z,11.50
2023-01-12T18:46:17.890Z,11.60
2023-01-12T18:48:45.625Z,11.50
2023-01-12T18:51:31.919Z,11.50
2023-01-12T18:53:59.774Z,11.50
2023-01-12T18:56:26.491Z,11.50
2023-01-12T18:58:53.534Z,11.50
2023-01-12T19:01:25.081Z,11.50
2023-01-12T19:03:52.927Z,11.60
2023-01-12T19:06:43.304Z,11.50
2023-01-12T19:09:33.869Z,11.50
2023-01-12T19:12:01.483Z,11.50
2023-01-12T19:14:47.299Z,11.50
2023-01-12T19:17:32.813Z,11.50
2023-01-12T19:20:01.764Z,11.50
2023-01-12T19:22:47.347Z,11.50
2023-01-12T19:25:34.668Z,11.50
2023-01-12T19:28:20.527Z,11.50
2023-01-12T19:30:47.631Z,11.50
2023-01-12T19:33:15.822Z,11.50
2023-01-12T19:35:44.161Z,11.60
2023-01-12T19:38:12.167Z,11.50
2023-01-12T19:40:52.239Z,11.50
2023-01-12T19:43:24.097Z,11.50
2023-01-12T19:46:00.494Z,11.60
2023-01-12T19:48:27.693Z,11.50
2023-01-12T19:50:54.559Z,11.60
2023-01-12T19:53:25.833Z,11.60
2023-01-12T19:55:52.865Z,11.60
2023-01-12T19:58:21.873Z,11.50
2023-01-12T20:00:49.380Z,11.60
2023-01-12T20:03:18.550Z,11.60
2023-01-12T20:05:47.764Z,11.70
2023-01-12T20:08:15.281Z,11.70
2023-01-12T20:10:42.359Z,11.70
2023-01-12T20:13:11.946Z,11.70
2023-01-12T20:15:40.851Z,11.70
2023-01-12T20:18:08.935Z,11.70
2023-01-12T20:20:35.885Z,11.70
2023-01-12T20:23:02.926Z,11.70
2023-01-12T20:25:29.820Z,11.70
2023-01-12T20:27:57.650Z,11.70
2023-01-12T20:30:37.514Z,11.70
2023-01-12T20:33:07.181Z,11.70
2023-01-12T20:35:35.039Z,11.70
2023-01-12T20:38:04.023Z,11.70
2023-01-12T20:40:32.639Z,11.70
2023-01-12T20:43:01.866Z,11.70
2023-01-12T20:45:29.192Z,11.70
2023-01-12T20:47:56.373Z,11.70
2023-01-12T20:50:25.366Z,11.70
2023-01-12T20:52:54.484Z,11.80
2023-01-12T20:55:21.440Z,11.60
2023-01-12T20:57:51.146Z,11.60
2023-01-12T21:00:18.236Z,11.60
2023-01-12T21:02:52.170Z,11.50
2023-01-12T21:05:24.187Z,11.50
2023-01-12T21:07:57.035Z,11.60
2023-01-12T21:10:37.886Z,11.60
2023-01-12T21:13:09.367Z,11.60
2023-01-12T21:15:38.665Z,11.60
2023-01-12T21:18:05.883Z,11.60
2023-01-12T21:20:46.481Z,11.50
2023-01-12T21:23:14.892Z,11.50
2023-01-12T21:25:45.715Z,11.50
2023-01-12T21:28:12.603Z,11.30
2023-01-12T21:30:40.308Z,11.30
2023-01-12T21:33:10.613Z,11.50
2023-01-12T21:35:37.563Z,11.40
2023-01-12T21:38:05.138Z,11.40
2023-01-12T21:40:34.121Z,11.30
2023-01-12T21:43:10.030Z,11.30
2023-01-12T21:45:39.238Z,11.30
2023-01-12T21:48:06.142Z,11.30
2023-01-12T21:50:33.594Z,11.30
2023-01-12T21:53:02.650Z,11.30
2023-01-12T21:55:33.814Z,11.30
2023-01-12T21:58:03.019Z,11.20
2023-01-12T22:00:30.340Z,11.30
2023-01-12T22:02:59.106Z,11.10
2023-01-12T22:05:26.680Z,11.00
2023-01-12T22:07:55.364Z,11.00
2023-01-12T22:10:30.928Z,10.90
2023-01-12T22:13:00.190Z,10.90
2023-01-12T22:15:32.067Z,10.80
2023-01-12T22:18:00.248Z,10.70
2023-01-12T22:20:30.351Z,10.70
2023-01-12T22:22:57.210Z,10.80
2023-01-12T22:25:26.250Z,10.90
2023-01-12T22:27:56.832Z,10.80
2023-01-12T22:30:27.063Z,10.90
2023-01-12T22:32:56.704Z,10.90
2023-01-12T22:35:31.335Z,10.80
2023-01-12T22:37:58.072Z,10.80
2023-01-12T22:40:24.829Z,10.90
2023-01-12T22:43:10.240Z,10.90
2023-01-12T22:45:37.641Z,10.90
2023-01-12T22:48:04.973Z,10.80
2023-01-12T22:50:31.905Z,10.80
2023-01-12T22:52:58.742Z,10.80
2023-01-12T22:55:25.946Z,10.80
2023-01-12T22:57:52.891Z,10.80
2023-01-12T23:00:20.619Z,10.80
2023-01-12T23:02:59.655Z,10.70
2023-01-12T23:05:35.311Z,10.60
2023-01-12T23:08:05.972Z,10.50
2023-01-12T23:10:33.349Z,10.50
2023-01-12T23:13:15.399Z,10.50
2023-01-12T23:15:46.238Z,10.40
2023-01-12T23:18:15.462Z,10.40
2023-01-12T23:20:43.734Z,10.30
2023-01-12T23:23:10.904Z,10.30
2023-01-12T23:25:38.194Z,10.30
2023-01-12T23:28:08.961Z,10.30
2023-01-12T23:30:35.825Z,10.40
2023-01-12T23:33:04.312Z,10.30
2023-01-12T23:35:37.143Z,10.30
2023-01-12T23:38:04.974Z,10.20
2023-01-12T23:40:32.864Z,10.20
2023-01-12T23:43:00.559Z,10.10
2023-01-12T23:45:27.343Z,10.20
2023-01-12T23:47:56.082Z,10.10
2023-01-12T23:50:23.041Z,10.00
2023-01-12T23:52:50.037Z,10.00
2023-01-12T23:55:17.377Z,10.00
2023-01-12T23:57:47.258Z,10.00
